Terminal Aerodrome Forecast
Issued by NWS Topeka, KS

Home | Current Version | Previous Version | Text Only | Print | Product List | Glossary Off
Versions: 1 2 3 4 5 6 7 8 9 10 11 12 13 14 15 16 17 18

000
FTUS43 KTOP 290907 AAB
TAFTOP
TAF AMD
KTOP 290907Z 2909/3006 27007KT 2SM TSRA BR BKN022 OVC040CB
      TEMPO 2909/2912 36012G25KT 6SM -TSRA BR SCT022 BKN040CB
     FM291300 03009KT P6SM SCT040 BKN150=

USA.gov is the U.S. government's official web portal to all federal, state and local government web resources and services.